createdAt,value
2018-02-19T00:00:38.341Z,26.77
2018-02-19T00:03:06.522Z,31.05
2018-02-19T00:05:37.743Z,30.67
2018-02-19T00:08:05.912Z,27.77
2018-02-19T00:10:53.195Z,29.35
2018-02-19T00:13:21.347Z,28.90
2018-02-19T00:15:56.924Z,26.70
2018-02-19T00:18:37.102Z,32.28
2018-02-19T00:21:05.291Z,25.00
2018-02-19T00:23:45.727Z,26.70
2018-02-19T00:29:09.959Z,30.75
2018-02-19T00:31:40.198Z,35.58
2018-02-19T00:34:08.365Z,29.70
2018-02-19T00:36:36.547Z,25.65
2018-02-19T00:39:04.773Z,30.62
2018-02-19T00:41:32.941Z,31.27
2018-02-19T00:44:01.102Z,29.00
2018-02-19T00:46:29.290Z,26.48
2018-02-19T00:48:57.469Z,33.08
2018-02-19T00:51:26.109Z,29.30
2018-02-19T00:53:54.279Z,31.12
2018-02-19T00:56:25.830Z,31.70
2018-02-19T00:58:54.344Z,32.05
2018-02-19T01:01:22.526Z,31.85
2018-02-19T01:03:51.540Z,26.52
2018-02-19T01:06:20.580Z,29.77
2018-02-19T01:08:48.731Z,30.10
2018-02-19T01:11:17.832Z,32.67
2018-02-19T01:13:46.004Z,34.25
2018-02-19T01:16:15.296Z,30.27
2018-02-19T01:18:43.463Z,35.38
2018-02-19T01:21:12.382Z,35.75
2018-02-19T01:23:40.557Z,32.45
2018-02-19T01:26:08.885Z,32.70
2018-02-19T01:28:37.050Z,30.00
2018-02-19T01:31:05.220Z,29.12
2018-02-19T01:33:34.179Z,31.87
2018-02-19T01:36:09.203Z,31.40
2018-02-19T01:38:38.959Z,34.28
2018-02-19T01:41:07.114Z,34.45
2018-02-19T01:43:35.278Z,31.87
2018-02-19T01:46:03.492Z,32.70
2018-02-19T01:48:31.659Z,31.20
2018-02-19T01:50:59.850Z,56.10
2018-02-19T01:53:28.783Z,72.18
2018-02-19T01:56:00.264Z,64.60
2018-02-19T01:58:28.493Z,46.60
2018-02-19T02:00:56.650Z,43.08
2018-02-19T02:03:25.586Z,32.38
2018-02-19T02:05:53.742Z,36.78
2018-02-19T02:08:21.904Z,31.87
2018-02-19T02:10:50.089Z,30.15
2018-02-19T02:13:18.266Z,30.02
2018-02-19T02:15:46.421Z,28.08
2018-02-19T02:18:14.602Z,32.75
2018-02-19T02:20:42.777Z,24.63
2018-02-19T02:23:10.945Z,27.95
2018-02-19T02:25:39.951Z,31.15
2018-02-19T02:28:08.116Z,26.52
2018-02-19T02:30:36.507Z,33.08
2018-02-19T02:33:04.691Z,28.20
2018-02-19T02:35:33.861Z,29.63
2018-02-19T02:38:02.025Z,23.50
2018-02-19T02:40:30.952Z,29.85
2018-02-19T02:42:59.119Z,26.20
2018-02-19T02:45:27.406Z,29.42
2018-02-19T02:47:55.583Z,31.37
2018-02-19T02:50:23.754Z,29.40
2018-02-19T02:52:51.922Z,31.05
2018-02-19T02:55:24.015Z,29.00
2018-02-19T02:57:52.267Z,31.50
2018-02-19T03:00:20.464Z,32.22
2018-02-19T03:02:48.624Z,27.77
2018-02-19T03:05:16.892Z,34.05
2018-02-19T03:07:45.068Z,36.08
2018-02-19T03:10:13.258Z,33.25
2018-02-19T03:12:42.064Z,25.90
2018-02-19T03:15:11.224Z,33.00
2018-02-19T03:17:39.405Z,38.00
2018-02-19T03:20:08.358Z,29.70
2018-02-19T03:22:36.568Z,31.48
2018-02-19T03:25:04.952Z,27.90
2018-02-19T03:27:33.126Z,35.35
2018-02-19T03:30:01.291Z,37.78
2018-02-19T03:32:29.521Z,32.47
2018-02-19T03:34:58.510Z,29.67
2018-02-19T03:37:26.687Z,32.58
2018-02-19T03:39:55.457Z,34.92
2018-02-19T03:42:23.622Z,29.83
2018-02-19T03:44:51.807Z,35.28
2018-02-19T03:47:19.956Z,31.10
2018-02-19T03:49:48.129Z,24.75
2018-02-19T03:52:16.316Z,28.55
2018-02-19T03:54:44.650Z,24.42
2018-02-19T03:57:12.814Z,28.92
2018-02-19T03:59:42.131Z,33.63
2018-02-19T04:02:10.743Z,30.42
2018-02-19T04:04:38.904Z,33.15
2018-02-19T04:07:07.098Z,34.97
2018-02-19T04:09:35.265Z,31.35
2018-02-19T04:12:03.664Z,30.05
2018-02-19T04:14:31.836Z,27.73
2018-02-19T04:17:00.056Z,29.37
2018-02-19T04:19:29.120Z,28.60
2018-02-19T04:21:57.279Z,29.02
2018-02-19T04:24:25.447Z,27.70
2018-02-19T04:26:57.380Z,34.85
2018-02-19T04:29:25.778Z,35.50
2018-02-19T04:31:53.933Z,33.13
2018-02-19T04:34:22.108Z,33.70
2018-02-19T04:36:50.272Z,30.60
2018-02-19T04:39:18.444Z,30.20
2018-02-19T04:41:46.621Z,27.08
2018-02-19T04:47:05.790Z,31.65
2018-02-19T04:49:34.337Z,28.48
2018-02-19T04:52:03.257Z,30.73
2018-02-19T04:54:32.192Z,33.42
2018-02-19T04:57:00.458Z,26.77
2018-02-19T04:59:28.958Z,30.45
2018-02-19T05:01:57.139Z,24.25
2018-02-19T05:04:32.968Z,27.83
2018-02-19T05:07:06.659Z,25.37
2018-02-19T05:09:35.558Z,28.05
2018-02-19T05:12:03.840Z,28.10
2018-02-19T05:14:32.001Z,26.77
2018-02-19T05:17:00.184Z,29.05
2018-02-19T05:19:28.352Z,23.60
2018-02-19T05:21:56.524Z,25.50
2018-02-19T05:24:24.697Z,27.37
2018-02-19T05:26:53.895Z,27.30
2018-02-19T05:29:22.049Z,28.77
2018-02-19T05:31:51.071Z,29.98
2018-02-19T05:34:19.246Z,23.02
2018-02-19T05:36:47.404Z,24.33
2018-02-19T05:39:15.632Z,22.77
2018-02-19T05:41:43.821Z,26.20
2018-02-19T05:44:11.982Z,21.40
2018-02-19T05:46:43.804Z,30.58
2018-02-19T05:49:12.078Z,25.67
2018-02-19T05:51:40.236Z,29.98
2018-02-19T05:54:08.397Z,24.67
2018-02-19T05:56:36.708Z,25.90
2018-02-19T05:59:04.865Z,25.23
2018-02-19T06:01:33.289Z,30.73
2018-02-19T06:04:02.176Z,25.85
2018-02-19T06:06:30.402Z,24.55
2018-02-19T06:08:59.336Z,28.40
2018-02-19T06:11:27.491Z,27.95
2018-02-19T06:13:55.696Z,30.15
2018-02-19T06:16:23.918Z,34.90
2018-02-19T06:18:53.770Z,28.30
2018-02-19T06:21:21.924Z,26.98
2018-02-19T06:23:50.090Z,26.65
2018-02-19T06:26:21.344Z,23.23
2018-02-19T06:28:49.508Z,29.60
2018-02-19T06:31:20.984Z,31.10
2018-02-19T06:33:49.140Z,29.40
2018-02-19T06:36:17.324Z,27.35
2018-02-19T06:38:45.482Z,25.02
2018-02-19T06:41:13.650Z,30.73
2018-02-19T06:43:42.577Z,24.92
2018-02-19T06:46:10.810Z,31.95
2018-02-19T06:48:38.972Z,30.30
2018-02-19T06:51:07.914Z,27.92
2018-02-19T06:53:36.843Z,30.35
2018-02-19T06:56:05.124Z,32.42
2018-02-19T06:58:33.280Z,29.02
2018-02-19T07:01:01.433Z,26.50
2018-02-19T07:03:29.751Z,27.23
2018-02-19T07:05:58.874Z,26.52
2018-02-19T07:08:27.062Z,26.85
2018-02-19T07:10:55.568Z,28.87
2018-02-19T07:13:23.754Z,27.30
2018-02-19T07:15:52.241Z,26.92
2018-02-19T07:18:21.880Z,25.85
2018-02-19T07:20:50.038Z,29.20
2018-02-19T07:23:18.354Z,28.10
2018-02-19T07:25:46.717Z,32.47
2018-02-19T07:28:14.880Z,27.65
2018-02-19T07:30:43.069Z,26.70
2018-02-19T07:33:11.230Z,31.33
2018-02-19T07:35:47.722Z,32.78
2018-02-19T07:41:11.414Z,28.15
2018-02-19T07:43:42.547Z,28.05
2018-02-19T07:46:20.962Z,26.95
2018-02-19T07:48:57.604Z,29.08
2018-02-19T07:51:25.753Z,30.15
2018-02-19T07:57:08.462Z,34.33
2018-02-19T07:59:36.613Z,25.20
2018-02-19T08:02:16.307Z,23.95
2018-02-19T08:04:44.454Z,29.48
2018-02-19T08:07:12.636Z,27.70
2018-02-19T08:09:40.852Z,26.85
2018-02-19T08:12:09.008Z,32.75
2018-02-19T08:14:37.159Z,29.48
2018-02-19T08:17:16.059Z,24.30
2018-02-19T08:19:44.554Z,25.45
2018-02-19T08:22:13.750Z,26.02
2018-02-19T08:24:42.863Z,28.87
2018-02-19T08:27:11.037Z,35.65
2018-02-19T08:29:39.204Z,23.95
2018-02-19T08:32:07.376Z,29.42
2018-02-19T08:34:35.597Z,25.27
2018-02-19T08:37:12.690Z,30.05
2018-02-19T08:39:41.923Z,24.23
2018-02-19T08:42:10.100Z,28.90
2018-02-19T08:44:38.285Z,41.45
2018-02-19T08:47:14.638Z,26.50
2018-02-19T08:49:42.790Z,29.17
2018-02-19T08:52:17.834Z,31.08
2018-02-19T08:54:46.707Z,24.37
2018-02-19T08:57:14.918Z,33.47
2018-02-19T08:59:43.088Z,29.90
2018-02-19T09:02:11.663Z,26.70
2018-02-19T09:04:39.815Z,31.98
2018-02-19T09:07:14.218Z,28.10
2018-02-19T09:09:42.376Z,28.80
2018-02-19T09:15:04.586Z,26.35
2018-02-19T09:17:32.763Z,27.05
2018-02-19T09:20:00.913Z,27.95
2018-02-19T09:22:29.091Z,32.05
2018-02-19T09:24:57.299Z,29.10
2018-02-19T09:27:25.469Z,23.42
2018-02-19T09:29:53.755Z,27.30
2018-02-19T09:32:22.347Z,29.55
2018-02-19T09:34:50.500Z,29.27
2018-02-19T09:37:18.663Z,28.70
2018-02-19T09:39:46.830Z,32.25
2018-02-19T09:42:15.789Z,24.40
2018-02-19T09:44:43.969Z,27.80
2018-02-19T09:47:12.549Z,27.40
2018-02-19T09:49:40.724Z,26.55
2018-02-19T09:52:08.888Z,30.58
2018-02-19T09:54:37.060Z,26.27
2018-02-19T09:57:05.312Z,27.13
2018-02-19T09:59:33.465Z,31.40
2018-02-19T10:02:01.685Z,31.30
2018-02-19T10:04:30.176Z,27.30
2018-02-19T10:06:58.405Z,30.27
2018-02-19T10:09:26.581Z,27.73
2018-02-19T10:11:55.508Z,33.28
2018-02-19T10:14:24.053Z,31.12
2018-02-19T10:16:52.325Z,27.13
2018-02-19T10:19:20.739Z,25.48
2018-02-19T10:21:48.906Z,29.42
2018-02-19T10:24:17.102Z,30.42
2018-02-19T10:26:48.484Z,24.80
2018-02-19T10:29:16.776Z,24.75
2018-02-19T10:31:44.947Z,34.08
2018-02-19T10:34:13.127Z,30.88
2018-02-19T10:36:41.395Z,33.83
2018-02-19T10:39:09.570Z,34.00
2018-02-19T10:41:37.746Z,33.72
2018-02-19T10:44:05.917Z,31.12
2018-02-19T10:46:35.122Z,51.35
2018-02-19T10:49:03.306Z,36.30
2018-02-19T10:51:31.481Z,53.47
2018-02-19T10:53:59.663Z,45.30
2018-02-19T10:56:28.830Z,30.58
2018-02-19T10:58:57.002Z,32.55
2018-02-19T11:01:25.186Z,30.40
2018-02-19T11:03:53.359Z,26.48
2018-02-19T11:06:25.226Z,26.65
2018-02-19T11:08:53.484Z,25.25
2018-02-19T11:11:21.663Z,24.52
2018-02-19T11:13:50.044Z,25.83
2018-02-19T11:16:18.319Z,26.40
2018-02-19T11:18:46.499Z,27.80
2018-02-19T11:21:14.645Z,28.20
2018-02-19T11:23:42.816Z,26.58
2018-02-19T11:26:11.017Z,25.48
2018-02-19T11:28:39.176Z,24.42
2018-02-19T11:31:08.336Z,23.90
2018-02-19T11:33:36.497Z,29.40
2018-02-19T11:36:04.975Z,29.45
2018-02-19T11:38:33.149Z,30.90
2018-02-19T11:41:01.389Z,19.33
2018-02-19T11:43:29.560Z,34.83
2018-02-19T11:46:02.175Z,35.80
2018-02-19T11:48:30.427Z,35.80
2018-02-19T11:50:58.596Z,24.58
2018-02-19T11:53:26.782Z,21.87
2018-02-19T11:55:55.053Z,25.37
2018-02-19T11:58:23.231Z,32.28
2018-02-19T12:00:52.284Z,27.48
2018-02-19T12:03:21.985Z,28.00
2018-02-19T12:05:51.234Z,22.55
2018-02-19T12:08:19.522Z,25.92
2018-02-19T12:10:48.100Z,55.53
2018-02-19T12:13:16.304Z,32.38
2018-02-19T12:15:44.811Z,25.33
2018-02-19T12:18:14.794Z,24.17
2018-02-19T12:20:44.415Z,27.45
2018-02-19T12:23:12.671Z,25.15
2018-02-19T12:25:41.426Z,21.55
2018-02-19T12:28:09.598Z,21.65
2018-02-19T12:30:37.782Z,22.30
2018-02-19T12:33:06.392Z,29.10
2018-02-19T12:35:35.411Z,26.75
2018-02-19T12:38:04.525Z,28.35
2018-02-19T12:40:32.706Z,27.42
2018-02-19T12:43:01.631Z,32.05
2018-02-19T12:45:33.781Z,23.20
2018-02-19T12:48:02.022Z,27.55
2018-02-19T12:50:30.312Z,27.15
2018-02-19T12:52:59.686Z,27.95
2018-02-19T12:55:30.108Z,27.75
2018-02-19T12:57:58.385Z,25.17
2018-02-19T13:00:27.822Z,26.67
2018-02-19T13:02:56.474Z,25.27
2018-02-19T13:05:25.456Z,27.33
2018-02-19T13:07:53.634Z,24.33
2018-02-19T13:10:21.798Z,29.40
2018-02-19T13:12:49.990Z,28.02
2018-02-19T13:15:33.129Z,24.60
2018-02-19T13:18:01.516Z,30.08
2018-02-19T13:20:29.741Z,24.67
2018-02-19T13:22:58.136Z,32.85
2018-02-19T13:25:31.711Z,26.17
2018-02-19T13:27:59.956Z,28.27
2018-02-19T13:30:28.130Z,28.75
2018-02-19T13:32:59.186Z,27.92
2018-02-19T13:35:32.521Z,30.85
2018-02-19T13:38:06.325Z,29.87
2018-02-19T13:40:34.510Z,30.85
2018-02-19T13:43:02.721Z,26.15
2018-02-19T13:45:42.447Z,31.65
2018-02-19T13:48:10.694Z,33.55
2018-02-19T13:50:41.369Z,24.52
2018-02-19T13:53:09.550Z,24.85
2018-02-19T13:55:37.782Z,25.77
2018-02-19T14:03:24.847Z,22.92
2018-02-19T14:08:31.869Z,29.02
2018-02-19T14:11:00.133Z,28.80
2018-02-19T14:13:29.077Z,24.37
2018-02-19T14:16:00.694Z,63.03
2018-02-19T14:18:29.772Z,55.65
2018-02-19T14:20:57.937Z,34.80
2018-02-19T14:23:26.096Z,32.83
2018-02-19T14:25:54.893Z,80.10
2018-02-19T14:28:23.076Z,44.22
2018-02-19T14:30:51.234Z,25.52
2018-02-19T14:33:19.397Z,27.02
2018-02-19T14:35:48.776Z,26.05
2018-02-19T14:38:17.682Z,28.73
2018-02-19T14:40:45.848Z,26.27
2018-02-19T14:43:14.014Z,25.83
2018-02-19T14:45:43.066Z,23.30
2018-02-19T14:48:11.222Z,24.85
2018-02-19T14:50:39.405Z,26.15
2018-02-19T14:53:07.589Z,28.85
2018-02-19T14:55:36.727Z,33.55
2018-02-19T14:58:04.940Z,25.33
2018-02-19T15:00:33.178Z,23.10
2018-02-19T15:03:01.332Z,28.55
2018-02-19T15:05:30.446Z,28.42
2018-02-19T15:07:58.626Z,30.27
2018-02-19T15:10:26.805Z,26.75
2018-02-19T15:12:55.028Z,25.08
2018-02-19T15:15:24.925Z,27.45
2018-02-19T15:17:53.062Z,23.48
2018-02-19T15:20:21.227Z,29.35
2018-02-19T15:22:49.396Z,27.73
2018-02-19T15:25:17.688Z,23.30
2018-02-19T15:27:45.847Z,30.02
2018-02-19T15:30:14.776Z,29.52
2018-02-19T15:32:42.938Z,28.42
2018-02-19T15:35:15.533Z,27.27
2018-02-19T15:37:43.779Z,28.77
2018-02-19T15:40:11.931Z,23.77
2018-02-19T15:42:40.862Z,25.15
2018-02-19T15:45:09.643Z,27.30
2018-02-19T15:47:37.798Z,24.05
2018-02-19T15:50:06.113Z,21.85
2018-02-19T15:52:34.309Z,24.37
2018-02-19T15:55:02.527Z,29.50
2018-02-19T15:57:30.704Z,27.77
2018-02-19T15:59:58.858Z,26.80
2018-02-19T16:02:28.294Z,29.52
2018-02-19T16:04:56.470Z,24.70
2018-02-19T16:07:24.642Z,29.37
2018-02-19T16:09:52.833Z,28.23
2018-02-19T16:12:21.071Z,26.70
2018-02-19T16:14:49.242Z,69.50
2018-02-19T16:17:20.362Z,27.15
2018-02-19T16:19:48.552Z,28.45
2018-02-19T16:22:16.694Z,34.10
2018-02-19T16:24:44.859Z,33.63
2018-02-19T16:27:13.025Z,27.60
2018-02-19T16:29:42.491Z,30.80
2018-02-19T16:32:10.647Z,32.88
2018-02-19T16:34:39.894Z,26.45
2018-02-19T16:37:08.126Z,24.50
2018-02-19T16:39:37.216Z,29.12
2018-02-19T16:42:05.735Z,24.58
2018-02-19T16:44:33.974Z,33.53
2018-02-19T16:47:02.600Z,29.05
2018-02-19T16:49:30.912Z,26.62
2018-02-19T16:51:59.153Z,26.95
2018-02-19T16:54:27.476Z,24.90
2018-02-19T16:56:55.639Z,28.38
2018-02-19T16:59:23.808Z,27.35
2018-02-19T17:01:51.986Z,25.70
2018-02-19T17:04:20.144Z,23.17
2018-02-19T17:06:49.685Z,33.90
2018-02-19T17:09:17.837Z,37.38
2018-02-19T17:11:46.029Z,32.40
2018-02-19T17:14:14.197Z,29.10
2018-02-19T17:16:42.418Z,30.65
2018-02-19T17:19:11.163Z,32.90
2018-02-19T17:21:39.341Z,32.47
2018-02-19T17:24:08.352Z,33.33
2018-02-19T17:26:37.582Z,29.02
2018-02-19T17:29:05.770Z,28.70
2018-02-19T17:31:33.939Z,26.12
2018-02-19T17:34:02.109Z,29.17
2018-02-19T17:36:30.281Z,39.50
2018-02-19T17:38:58.443Z,34.55
2018-02-19T17:41:26.606Z,31.48
2018-02-19T17:43:54.766Z,37.10
2018-02-19T17:46:23.798Z,36.03
2018-02-19T17:48:51.967Z,38.00
2018-02-19T17:51:20.131Z,39.80
2018-02-19T17:53:48.320Z,35.70
2018-02-19T17:56:16.486Z,41.50
2018-02-19T17:58:44.729Z,28.58
2018-02-19T18:01:12.898Z,34.42
2018-02-19T18:03:41.057Z,44.95
2018-02-19T18:06:10.216Z,45.45
2018-02-19T18:08:39.284Z,40.40
2018-02-19T18:11:08.947Z,37.25
2018-02-19T18:13:37.101Z,41.78
2018-02-19T18:16:05.722Z,37.42
2018-02-19T18:18:34.046Z,39.72
2018-02-19T18:21:02.827Z,44.67
2018-02-19T18:23:30.998Z,38.85
2018-02-19T18:25:59.285Z,61.80
2018-02-19T18:28:27.457Z,33.92
2018-02-19T18:30:55.648Z,28.62
2018-02-19T18:33:23.818Z,29.98
2018-02-19T18:35:52.994Z,29.55
2018-02-19T18:38:21.152Z,24.63
2018-02-19T18:40:50.077Z,28.48
2018-02-19T18:43:18.252Z,27.70
2018-02-19T18:45:46.765Z,30.15
2018-02-19T18:48:14.926Z,27.65
2018-02-19T18:50:43.111Z,26.75
2018-02-19T18:53:11.263Z,30.73
2018-02-19T18:55:45.669Z,28.73
2018-02-19T18:58:13.832Z,32.80
2018-02-19T19:00:42.112Z,38.83
2018-02-19T19:03:10.280Z,34.20
2018-02-19T19:05:42.608Z,34.33
2018-02-19T19:08:22.708Z,31.85
2018-02-19T19:10:51.696Z,40.12
2018-02-19T19:13:19.872Z,41.33
2018-02-19T19:15:48.155Z,34.35
2018-02-19T19:18:16.311Z,35.85
2018-02-19T19:20:46.200Z,34.80
2018-02-19T19:23:14.352Z,27.90
2018-02-19T19:25:47.066Z,35.58
2018-02-19T19:28:16.037Z,34.10
2018-02-19T19:30:47.706Z,32.45
2018-02-19T19:33:15.885Z,31.20
2018-02-19T19:35:45.117Z,33.15
2018-02-19T19:38:13.331Z,33.15
2018-02-19T19:40:41.502Z,36.92
2018-02-19T19:43:09.694Z,38.63
2018-02-19T19:45:39.279Z,33.65
2018-02-19T19:48:07.526Z,38.70
2018-02-19T19:50:36.536Z,35.20
2018-02-19T19:53:05.853Z,36.92
2018-02-19T19:55:34.243Z,32.17
2018-02-19T19:58:02.718Z,94.72
2018-02-19T20:00:31.734Z,50.50
2018-02-19T20:03:02.234Z,40.97
2018-02-19T20:05:36.391Z,33.75
2018-02-19T20:08:05.863Z,34.20
2018-02-19T20:10:35.248Z,38.40
2018-02-19T20:13:04.656Z,36.83
2018-02-19T20:15:33.509Z,38.95
2018-02-19T20:18:07.353Z,38.50
2018-02-19T20:23:14.853Z,38.40
2018-02-19T20:25:46.309Z,40.12
2018-02-19T20:28:15.601Z,38.60
2018-02-19T20:30:45.309Z,38.83
2018-02-19T20:33:13.602Z,37.25
2018-02-19T20:35:42.784Z,41.53
2018-02-19T20:38:11.660Z,43.03
2018-02-19T20:40:41.434Z,38.63
2018-02-19T20:43:14.023Z,41.65
2018-02-19T20:45:49.637Z,38.17
2018-02-19T20:48:20.063Z,41.00
2018-02-19T20:50:51.241Z,42.95
2018-02-19T20:53:30.189Z,38.30
2018-02-19T20:56:02.183Z,45.65
2018-02-19T20:58:36.482Z,45.45
2018-02-19T21:01:04.666Z,44.13
2018-02-19T21:03:35.098Z,42.88
2018-02-19T21:06:17.144Z,40.88
2018-02-19T21:08:50.604Z,43.50
2018-02-19T21:11:20.529Z,57.97
2018-02-19T21:13:48.850Z,67.78
2018-02-19T21:16:25.482Z,49.58
2018-02-19T21:18:53.716Z,51.83
2018-02-19T21:26:47.459Z,38.72
2018-02-19T21:29:16.393Z,44.50
2018-02-19T21:31:45.605Z,42.92
2018-02-19T21:34:14.750Z,51.35
2018-02-19T21:36:43.727Z,47.58
2018-02-19T21:39:13.084Z,48.97
2018-02-19T21:41:43.852Z,51.88
2018-02-19T21:44:14.872Z,45.85
2018-02-19T21:46:43.462Z,47.88
2018-02-19T21:49:15.916Z,45.45
2018-02-19T21:51:44.101Z,49.65
2018-02-19T21:54:15.284Z,60.17
2018-02-19T21:56:43.445Z,49.22
2018-02-19T21:59:11.670Z,50.67
2018-02-19T22:01:43.385Z,47.03
2018-02-19T22:04:11.822Z,47.80
2018-02-19T22:06:49.294Z,50.67
2018-02-19T22:09:17.698Z,52.05
2018-02-19T22:11:47.813Z,53.85
2018-02-19T22:14:17.262Z,51.47
2018-02-19T22:16:52.252Z,50.60
2018-02-19T22:19:24.659Z,42.20
2018-02-19T22:21:54.371Z,46.80
2018-02-19T22:24:23.648Z,40.72
2018-02-19T22:26:53.656Z,45.95
2018-02-19T22:29:21.849Z,52.00
2018-02-19T22:31:50.620Z,44.53
2018-02-19T22:34:19.782Z,59.15
2018-02-19T22:36:48.614Z,50.50
2018-02-19T22:39:18.915Z,47.05
2018-02-19T22:41:50.016Z,48.13
2018-02-19T22:44:19.391Z,48.22
2018-02-19T22:46:47.664Z,48.42
2018-02-19T22:49:20.725Z,44.60
2018-02-19T22:51:50.819Z,53.28
2018-02-19T22:54:21.583Z,51.03
2018-02-19T22:56:52.169Z,49.88
2018-02-19T22:59:24.834Z,46.15
2018-02-19T23:01:55.353Z,48.28
2018-02-19T23:04:24.398Z,50.35
2018-02-19T23:06:53.087Z,44.75
2018-02-19T23:09:22.660Z,53.92
2018-02-19T23:11:51.048Z,50.35
2018-02-19T23:14:21.861Z,49.92
2018-02-19T23:16:56.985Z,46.95
2018-02-19T23:19:25.513Z,51.17
2018-02-19T23:21:54.681Z,57.33
2018-02-19T23:24:23.378Z,47.17
2018-02-19T23:26:55.487Z,44.80
2018-02-19T23:29:26.836Z,56.80
2018-02-19T23:31:55.496Z,52.03
2018-02-19T23:34:24.458Z,43.80
2018-02-19T23:36:53.879Z,49.53
2018-02-19T23:39:22.976Z,54.95
2018-02-19T23:41:51.931Z,48.33
2018-02-19T23:44:20.101Z,60.53
2018-02-19T23:46:55.115Z,50.88
2018-02-19T23:49:23.343Z,47.70
2018-02-19T23:51:53.255Z,58.50
2018-02-19T23:54:21.456Z,49.28
2018-02-19T23:56:51.817Z,50.00
2018-02-19T23:59:25.200Z,48.92
